Portada
METAR-TAF:

METAR-TAF

Aeroports :

Waynesville Regional Airport at Forney Field

Fort Leonard Wood, Missouri, Estats Units d'Amèrica

latitud: 37-44N, longitud: 092-08W, altitud: 353 m

Observació

L'informe es va fer fa 39 minuts, a les 18:26 UTC
Vent 5 kt del Sud-Est
Temperatura 18°C
Humitat 83%
Pressió 1020 hPa
Visibilitat: 16.1 km
Cel cobert a una alçada de 700 ft

METAR: KTBN 211826Z AUTO 14005KT 10SM OVC007 18/15 A3011 RMK AO2 CIG 006 RWY33 SLP196

Hora: 14:05 (19:05 UTC)


TAF: manca

Observacions i pronòstics meteorològics de més de 4000 aeroports (METAR i TAF).

Les estacions disponibles són els punts grocs i vermells al mapa.

Posi el ratolí al punt desitjat per veure el nom de l'estació.

Feu clic per veure les observacions i els pronòstics meteorològics.

Per canviar el mapa: feu clic els botons verds amb una creu de color negre per apropar; al botó verd amb un guió per allunyar la imatge; o en les fletxes verdes per a mapes adjacents.


METAR-TAF: